createdAt,value
2018-03-18T00:01:04.431Z,-2.31
2018-03-18T00:06:03.915Z,-2.31
2018-03-18T00:11:04.245Z,-2.31
2018-03-18T00:16:03.720Z,-2.31
2018-03-18T00:21:03.804Z,-2.31
2018-03-18T00:26:04.532Z,-2.31
2018-03-18T00:31:03.762Z,-2.31
2018-03-18T00:36:04.127Z,-2.31
2018-03-18T00:41:03.964Z,-2.31
2018-03-18T00:46:03.532Z,-2.31
2018-03-18T00:51:04.786Z,-2.31
2018-03-18T00:56:04.133Z,-2.31
2018-03-18T01:01:04.561Z,-2.31
2018-03-18T01:06:04.672Z,-2.31
2018-03-18T01:11:04.219Z,-2.31
2018-03-18T01:16:04.424Z,-2.31
2018-03-18T01:21:03.896Z,-2.31
2018-03-18T01:26:04.070Z,-2.31
2018-03-18T01:31:04.673Z,-2.31
2018-03-18T01:36:03.864Z,-2.31
2018-03-18T01:41:04.258Z,-2.31
2018-03-18T01:46:04.702Z,-2.31
2018-03-18T01:51:04.213Z,-2.31
2018-03-18T01:56:04.419Z,-2.31
2018-03-18T02:01:04.074Z,-2.31
2018-03-18T02:06:04.158Z,-2.31
2018-03-18T02:11:03.122Z,-2.31
2018-03-18T02:16:03.662Z,-2.31
2018-03-18T02:21:04.175Z,-2.31
2018-03-18T02:26:04.028Z,-2.31
2018-03-18T02:31:03.758Z,-2.31
2018-03-18T02:36:04.310Z,-2.31
2018-03-18T02:41:03.463Z,-2.31
2018-03-18T02:46:04.115Z,-2.31
2018-03-18T02:51:04.593Z,-2.31
2018-03-18T02:56:04.367Z,-2.31
2018-03-18T03:01:04.135Z,-2.31
2018-03-18T03:06:04.610Z,-2.31
2018-03-18T03:11:04.326Z,-2.31
2018-03-18T03:16:04.021Z,-2.31
2018-03-18T03:21:04.307Z,-2.31
2018-03-18T03:26:04.110Z,-2.31
2018-03-18T03:31:04.612Z,-2.31
2018-03-18T03:36:04.092Z,-2.31
2018-03-18T03:41:04.428Z,-2.31
2018-03-18T03:46:04.597Z,-2.31
2018-03-18T03:51:05.032Z,-2.31
2018-03-18T03:56:04.189Z,-2.31
2018-03-18T04:01:03.530Z,-2.31
2018-03-18T04:06:04.151Z,-2.31
2018-03-18T04:11:04.172Z,-2.31
2018-03-18T04:16:04.324Z,-2.31
2018-03-18T04:21:04.132Z,-2.31
2018-03-18T04:26:03.509Z,-2.31
2018-03-18T04:31:04.182Z,-2.31
2018-03-18T04:36:04.664Z,-2.31
2018-03-18T04:41:05.162Z,-2.31
2018-03-18T04:46:04.172Z,-2.31
2018-03-18T04:51:04.106Z,-2.31
2018-03-18T04:56:04.155Z,-2.31
2018-03-18T05:01:03.918Z,-2.31
2018-03-18T05:06:03.833Z,-2.31
2018-03-18T05:11:05.025Z,-2.31
2018-03-18T05:16:03.234Z,-2.31
2018-03-18T05:21:05.125Z,-2.31
2018-03-18T05:26:05.080Z,-2.31
2018-03-18T05:31:04.678Z,-2.31
2018-03-18T05:36:03.847Z,-2.31
2018-03-18T05:41:04.150Z,-2.31
2018-03-18T05:46:04.011Z,-2.31
2018-03-18T05:51:04.869Z,-2.31
2018-03-18T05:56:04.670Z,-2.31
2018-03-18T06:01:03.395Z,-2.31
2018-03-18T06:06:03.813Z,-2.31
2018-03-18T06:11:03.848Z,-2.31
2018-03-18T06:16:04.461Z,-2.31
2018-03-18T06:21:04.175Z,-2.31
2018-03-18T06:26:04.472Z,-2.31
2018-03-18T06:31:04.330Z,-2.31
2018-03-18T06:36:04.384Z,-2.31
2018-03-18T06:41:04.790Z,-2.31
2018-03-18T06:46:04.177Z,-2.31
2018-03-18T06:51:04.006Z,-2.31
2018-03-18T06:56:04.141Z,-2.31
2018-03-18T07:01:04.691Z,-2.31
2018-03-18T07:06:05.210Z,-2.31
2018-03-18T07:11:04.715Z,-2.31
2018-03-18T07:16:04.496Z,-2.31
2018-03-18T07:21:03.996Z,-2.31
2018-03-18T07:26:04.155Z,-2.31
2018-03-18T07:31:04.639Z,-2.31
2018-03-18T07:36:04.126Z,-2.31
2018-03-18T07:41:04.458Z,-2.31
2018-03-18T07:46:04.275Z,-2.31
2018-03-18T07:51:04.164Z,-2.31
2018-03-18T07:56:04.559Z,-2.31
2018-03-18T08:01:04.004Z,-2.31
2018-03-18T08:06:04.526Z,-2.31
2018-03-18T08:11:04.188Z,-2.31
2018-03-18T08:16:04.978Z,-2.31
2018-03-18T08:21:04.518Z,-2.31
2018-03-18T08:26:04.373Z,-2.31
2018-03-18T08:31:04.221Z,-2.31
2018-03-18T08:36:04.347Z,-2.31
2018-03-18T08:41:04.717Z,-2.31
2018-03-18T08:46:04.627Z,-2.31
2018-03-18T08:51:03.986Z,-2.31
2018-03-18T08:56:04.194Z,-2.31
2018-03-18T09:01:04.325Z,-2.31
2018-03-18T09:06:04.127Z,-2.31
2018-03-18T09:11:04.473Z,-2.31
2018-03-18T09:16:04.019Z,-2.31
2018-03-18T09:21:04.332Z,-2.31
2018-03-18T09:26:04.017Z,-2.31
2018-03-18T09:31:03.529Z,-2.31
2018-03-18T09:36:04.650Z,-2.31
2018-03-18T09:41:03.995Z,-2.31
2018-03-18T09:46:04.198Z,-2.31
2018-03-18T09:51:04.649Z,-2.31
2018-03-18T09:56:04.405Z,-2.31
2018-03-18T10:01:03.547Z,-2.31
2018-03-18T10:06:04.690Z,-2.31
2018-03-18T10:11:04.685Z,-2.31
2018-03-18T10:16:04.566Z,-2.31
2018-03-18T10:21:04.762Z,-2.31
2018-03-18T10:26:03.825Z,-2.31
2018-03-18T10:31:04.712Z,-2.31
2018-03-18T10:36:03.874Z,-2.31
2018-03-18T10:41:04.174Z,-2.31
2018-03-18T10:46:03.995Z,-2.31
2018-03-18T11:06:03.909Z,-2.31
2018-03-18T11:11:03.923Z,-2.31
2018-03-18T11:16:04.188Z,-2.31
2018-03-18T11:21:04.280Z,-2.31
2018-03-18T11:26:03.819Z,-2.31
2018-03-18T11:31:03.905Z,-2.31
2018-03-18T17:00:43.643Z,-2.80
2018-03-18T17:05:43.378Z,-2.62
2018-03-18T17:10:42.746Z,-2.82
2018-03-18T17:15:43.200Z,-2.85
2018-03-18T17:20:43.195Z,-3.14
2018-03-18T17:25:43.704Z,-3.28
2018-03-18T17:30:44.127Z,-3.01
2018-03-18T17:35:43.300Z,-3.04
2018-03-18T17:40:43.452Z,-3.46
2018-03-18T17:45:44.146Z,-2.89
2018-03-18T17:50:43.301Z,-2.99
2018-03-18T17:55:44.050Z,-3.04
2018-03-18T18:00:44.606Z,-2.89
2018-03-18T18:05:44.987Z,-2.89
2018-03-18T18:10:44.033Z,-2.89
2018-03-18T18:15:43.647Z,-2.89
2018-03-18T18:20:44.811Z,-2.89
2018-03-18T18:25:43.797Z,-2.89
2018-03-18T18:30:43.906Z,-2.89
2018-03-18T18:35:44.931Z,-2.89
2018-03-18T18:40:43.678Z,-2.89
2018-03-18T18:45:43.909Z,-2.89
2018-03-18T18:50:43.679Z,-2.89
2018-03-18T18:55:44.722Z,-2.89
2018-03-18T19:00:44.458Z,-2.89
2018-03-18T19:05:43.594Z,-2.89
2018-03-18T19:10:44.499Z,-2.89
2018-03-18T19:15:44.087Z,-2.89
2018-03-18T19:20:44.174Z,-2.89
2018-03-18T19:25:44.394Z,-2.89
2018-03-18T19:30:43.840Z,-2.89
2018-03-18T19:35:44.050Z,-2.89
2018-03-18T19:40:44.315Z,-2.89
2018-03-18T19:45:44.306Z,-2.89
2018-03-18T19:50:44.294Z,-2.89
2018-03-18T19:55:43.657Z,-2.89
2018-03-18T20:00:45.231Z,-2.89
2018-03-18T20:05:44.462Z,-2.89
2018-03-18T20:10:43.769Z,-2.89
2018-03-18T20:15:44.029Z,-2.89
2018-03-18T20:20:43.942Z,-2.89
2018-03-18T20:25:44.465Z,-2.89
2018-03-18T20:30:44.038Z,-2.89
2018-03-18T20:35:43.623Z,-2.89
2018-03-18T20:40:45.240Z,-2.89
2018-03-18T20:45:44.319Z,-2.89
2018-03-18T20:50:44.045Z,-2.89
2018-03-18T20:55:42.223Z,-2.89
2018-03-18T21:00:42.705Z,-2.89
2018-03-18T21:05:43.641Z,-2.89
2018-03-18T21:11:04.295Z,-2.89
2018-03-18T21:16:03.975Z,-2.89
2018-03-18T21:21:03.929Z,-2.89
2018-03-18T21:26:03.579Z,-2.89
2018-03-18T21:31:03.833Z,-2.89
2018-03-18T21:36:03.399Z,-2.89
2018-03-18T21:41:03.928Z,-2.89
2018-03-18T21:46:03.265Z,-2.89
2018-03-18T21:51:03.628Z,-2.89
2018-03-18T21:56:04.053Z,-2.89
2018-03-18T22:01:03.912Z,-2.89
2018-03-18T22:06:05.687Z,-2.89
2018-03-18T22:11:04.748Z,-2.89
2018-03-18T22:16:05.024Z,-2.89
2018-03-18T22:21:04.091Z,-2.89
2018-03-18T22:26:03.333Z,-2.89
2018-03-18T22:31:03.569Z,-2.89
2018-03-18T22:36:04.109Z,-2.89
2018-03-18T22:41:03.674Z,-2.89
2018-03-18T22:46:04.012Z,-2.89
2018-03-18T22:51:03.396Z,-2.89
2018-03-18T22:56:03.716Z,-2.89
2018-03-18T23:01:04.000Z,-2.89
2018-03-18T23:06:03.459Z,-2.89
2018-03-18T23:11:04.039Z,-2.89
2018-03-18T23:16:03.326Z,-2.89
2018-03-18T23:21:03.797Z,-2.89
2018-03-18T23:26:04.073Z,-2.89
2018-03-18T23:31:03.390Z,-2.89
2018-03-18T23:36:04.089Z,-2.89
2018-03-18T23:41:03.474Z,-2.89
2018-03-18T23:46:03.888Z,-2.89
2018-03-18T23:51:05.111Z,-2.89
2018-03-18T23:56:04.826Z,-2.89
